createdAt,value
2023-01-30T00:00:54.870Z,63.76
2023-01-30T00:03:22.563Z,63.74
2023-01-30T00:05:50.153Z,63.54
2023-01-30T00:08:17.694Z,63.69
2023-01-30T00:10:45.390Z,63.53
2023-01-30T00:13:12.978Z,64.05
2023-01-30T00:15:40.533Z,63.99
2023-01-30T00:18:08.206Z,64.23
2023-01-30T00:20:35.705Z,63.85
2023-01-30T00:23:03.314Z,64.27
2023-01-30T00:25:31.793Z,64.33
2023-01-30T00:28:00.183Z,64.05
2023-01-30T00:30:30.040Z,64.16
2023-01-30T00:32:58.732Z,64.19
2023-01-30T00:35:28.853Z,64.00
2023-01-30T00:37:57.395Z,64.30
2023-01-30T00:40:25.574Z,63.84
2023-01-30T00:43:13.084Z,64.08
2023-01-30T00:46:00.203Z,64.49
2023-01-30T00:48:27.975Z,64.44
2023-01-30T00:50:55.339Z,63.93
2023-01-30T00:53:22.593Z,64.43
2023-01-30T00:55:53.514Z,64.42
2023-01-30T00:58:21.589Z,64.62
2023-01-30T01:00:49.517Z,64.51
2023-01-30T01:03:17.484Z,64.71
2023-01-30T01:05:45.136Z,64.37
2023-01-30T01:08:15.091Z,64.55
2023-01-30T01:10:42.572Z,64.70
2023-01-30T01:13:10.795Z,65.25
2023-01-30T01:15:38.184Z,65.07
2023-01-30T01:18:06.002Z,64.84
2023-01-30T01:20:33.540Z,64.84
2023-01-30T01:23:00.877Z,65.18
2023-01-30T01:25:28.320Z,65.37
2023-01-30T01:27:55.889Z,65.59
2023-01-30T01:30:23.203Z,65.31
2023-01-30T01:32:50.550Z,65.41
2023-01-30T01:35:19.759Z,65.52
2023-01-30T01:37:47.571Z,65.61
2023-01-30T01:40:39.169Z,65.30
2023-01-30T01:43:17.249Z,65.75
2023-01-30T01:45:48.594Z,65.45
2023-01-30T01:48:21.317Z,65.62
2023-01-30T01:50:53.883Z,66.17
2023-01-30T01:53:24.231Z,66.28
2023-01-30T01:55:53.256Z,65.71
2023-01-30T01:58:26.808Z,65.84
2023-01-30T02:00:55.972Z,65.78
2023-01-30T02:03:25.697Z,65.60
2023-01-30T02:05:55.863Z,66.04
2023-01-30T02:08:30.954Z,66.07
2023-01-30T02:11:17.606Z,66.67
2023-01-30T02:13:45.619Z,66.34
2023-01-30T02:16:13.425Z,66.59
2023-01-30T02:18:42.321Z,66.71
2023-01-30T02:21:12.493Z,66.70
2023-01-30T02:24:12.217Z,66.34
2023-01-30T02:26:57.793Z,66.58
2023-01-30T02:29:37.534Z,66.81
2023-01-30T02:32:10.563Z,66.36
2023-01-30T02:34:50.082Z,66.12
2023-01-30T02:37:25.182Z,66.24
2023-01-30T02:40:00.868Z,66.04
2023-01-30T02:42:38.108Z,65.67
2023-01-30T02:45:11.645Z,65.71
2023-01-30T02:47:47.824Z,65.90
2023-01-30T02:50:27.144Z,65.67
2023-01-30T02:52:54.939Z,65.96
2023-01-30T02:55:25.275Z,66.34
2023-01-30T02:57:52.715Z,66.70
2023-01-30T03:00:23.948Z,66.48
2023-01-30T03:03:07.742Z,66.62
2023-01-30T03:05:44.094Z,66.55
2023-01-30T03:08:23.330Z,66.36
2023-01-30T03:11:07.581Z,66.30
2023-01-30T03:13:57.140Z,66.50
2023-01-30T03:16:25.330Z,65.73
2023-01-30T03:18:52.609Z,65.82
2023-01-30T03:21:20.104Z,65.65
2023-01-30T03:23:47.616Z,65.42
2023-01-30T03:26:19.220Z,65.51
2023-01-30T03:28:49.027Z,66.01
2023-01-30T03:31:16.473Z,66.44
2023-01-30T03:33:43.759Z,66.11
2023-01-30T03:36:11.248Z,65.97
2023-01-30T03:38:38.793Z,66.03
2023-01-30T03:41:06.881Z,66.08
2023-01-30T03:43:35.363Z,66.03
2023-01-30T03:46:04.571Z,65.14
2023-01-30T03:48:31.914Z,65.64
2023-01-30T03:50:59.422Z,65.68
2023-01-30T03:53:26.651Z,65.50
2023-01-30T03:55:54.871Z,65.09
2023-01-30T03:58:27.104Z,65.38
2023-01-30T04:00:57.448Z,65.07
2023-01-30T04:03:26.500Z,65.52
2023-01-30T04:05:58.045Z,65.49
2023-01-30T04:08:26.135Z,65.44
2023-01-30T04:10:53.518Z,65.53
2023-01-30T04:13:21.363Z,65.04
2023-01-30T04:15:48.740Z,65.09
2023-01-30T04:18:39.932Z,65.15
2023-01-30T04:21:13.644Z,65.38
2023-01-30T04:23:41.420Z,65.92
2023-01-30T04:26:08.964Z,65.14
2023-01-30T04:28:38.627Z,65.09
2023-01-30T04:31:06.532Z,65.62
2023-01-30T04:33:41.656Z,65.88
2023-01-30T04:36:10.331Z,65.73
2023-01-30T04:38:38.487Z,65.80
2023-01-30T04:41:06.569Z,65.71
2023-01-30T04:43:38.466Z,65.76
2023-01-30T04:46:30.917Z,65.47
2023-01-30T04:48:58.153Z,65.60
2023-01-30T04:51:25.947Z,65.69
2023-01-30T04:53:53.392Z,65.46
2023-01-30T04:56:20.698Z,65.42
2023-01-30T04:58:49.849Z,65.14
2023-01-30T05:01:23.286Z,65.25
2023-01-30T05:03:55.117Z,65.52
2023-01-30T05:06:22.642Z,65.56
2023-01-30T05:08:50.764Z,64.83
2023-01-30T05:11:18.378Z,65.01
2023-01-30T05:13:45.850Z,65.29
2023-01-30T05:16:14.367Z,65.91
2023-01-30T05:18:42.000Z,65.77
2023-01-30T05:21:10.619Z,66.02
2023-01-30T05:23:38.072Z,66.00
2023-01-30T05:26:05.847Z,65.77
2023-01-30T05:28:33.400Z,65.62
2023-01-30T05:31:01.429Z,65.83
2023-01-30T05:33:29.055Z,65.33
2023-01-30T05:35:56.343Z,65.41
2023-01-30T05:38:24.705Z,65.59
2023-01-30T05:41:02.232Z,65.40
2023-01-30T05:43:30.222Z,65.14
2023-01-30T05:45:58.618Z,65.47
2023-01-30T05:48:26.156Z,65.04
2023-01-30T05:50:54.045Z,65.15
2023-01-30T05:53:23.781Z,64.92
2023-01-30T05:55:58.044Z,64.79
2023-01-30T05:58:26.464Z,65.56
2023-01-30T06:00:54.504Z,65.44
2023-01-30T06:03:21.727Z,65.24
2023-01-30T06:05:49.174Z,65.08
2023-01-30T06:08:16.825Z,65.25
2023-01-30T06:10:45.132Z,65.20
2023-01-30T06:13:12.379Z,65.30
2023-01-30T06:15:39.828Z,65.83
2023-01-30T06:18:08.468Z,65.98
2023-01-30T06:20:35.791Z,65.73
2023-01-30T06:23:03.737Z,65.42
2023-01-30T06:25:30.987Z,64.82
2023-01-30T06:27:58.437Z,65.55
2023-01-30T06:30:25.769Z,65.64
2023-01-30T06:32:53.096Z,65.28
2023-01-30T06:35:20.771Z,65.26
2023-01-30T06:37:50.513Z,65.37
2023-01-30T06:40:17.899Z,65.82
2023-01-30T06:42:48.627Z,65.39
2023-01-30T06:45:17.497Z,65.56
2023-01-30T06:47:47.355Z,65.23
2023-01-30T06:50:15.640Z,65.25
2023-01-30T06:52:43.383Z,65.19
2023-01-30T06:55:11.423Z,65.52
2023-01-30T06:57:38.744Z,65.64
2023-01-30T07:00:07.216Z,65.46
2023-01-30T07:02:38.214Z,66.02
2023-01-30T07:05:06.290Z,65.61
2023-01-30T07:07:33.587Z,65.77
2023-01-30T07:10:07.860Z,65.76
2023-01-30T07:12:36.427Z,65.53
2023-01-30T07:15:05.092Z,65.28
2023-01-30T07:17:32.778Z,65.67
2023-01-30T07:20:00.298Z,65.58
2023-01-30T07:22:27.669Z,66.14
2023-01-30T07:24:54.985Z,65.98
2023-01-30T07:27:22.318Z,65.66
2023-01-30T07:29:50.812Z,65.84
2023-01-30T07:32:20.130Z,65.83
2023-01-30T07:34:47.808Z,65.92
2023-01-30T07:37:15.094Z,65.81
2023-01-30T07:39:43.647Z,65.88
2023-01-30T07:42:10.898Z,65.81
2023-01-30T07:44:38.121Z,65.81
2023-01-30T07:47:05.435Z,66.15
2023-01-30T07:49:32.784Z,66.04
2023-01-30T07:52:00.094Z,65.82
2023-01-30T07:54:27.527Z,65.62
2023-01-30T07:56:54.829Z,65.94
2023-01-30T07:59:22.158Z,65.71
2023-01-30T08:01:49.427Z,66.52
2023-01-30T08:04:16.700Z,66.21
2023-01-30T08:06:43.991Z,65.98
2023-01-30T08:09:11.250Z,65.97
2023-01-30T08:11:38.549Z,65.99
2023-01-30T08:14:05.748Z,65.93
2023-01-30T08:16:34.250Z,65.92
2023-01-30T08:19:01.504Z,65.67
2023-01-30T08:21:28.861Z,65.80
2023-01-30T08:23:56.079Z,65.89
2023-01-30T08:26:23.538Z,65.20
2023-01-30T08:28:50.858Z,65.29
2023-01-30T08:31:20.414Z,65.47
2023-01-30T08:33:48.674Z,65.93
2023-01-30T08:36:15.973Z,66.00
2023-01-30T08:38:43.416Z,65.67
2023-01-30T08:41:10.717Z,65.99
2023-01-30T08:43:38.196Z,65.96
2023-01-30T08:46:05.770Z,65.76
2023-01-30T08:48:47.482Z,65.34
2023-01-30T08:51:16.469Z,65.48
2023-01-30T08:53:43.801Z,65.72
2023-01-30T08:56:11.269Z,65.26
2023-01-30T08:58:38.564Z,65.04
2023-01-30T09:01:06.448Z,65.11
2023-01-30T09:03:33.897Z,64.79
2023-01-30T09:06:01.163Z,64.83
2023-01-30T09:08:28.671Z,65.07
2023-01-30T09:10:59.860Z,64.53
2023-01-30T09:13:28.197Z,63.95
2023-01-30T09:15:55.472Z,64.50
2023-01-30T09:18:23.590Z,64.28
2023-01-30T09:20:52.689Z,64.33
2023-01-30T09:23:20.098Z,64.38
2023-01-30T09:25:47.500Z,64.54
2023-01-30T09:28:14.884Z,64.30
2023-01-30T09:30:42.346Z,64.34
2023-01-30T09:33:09.761Z,64.14
2023-01-30T09:35:36.936Z,64.02
2023-01-30T09:38:05.830Z,64.48
2023-01-30T09:40:36.157Z,64.29
2023-01-30T09:43:07.160Z,64.80
2023-01-30T09:45:34.875Z,64.72
2023-01-30T09:48:18.262Z,64.65
2023-01-30T09:51:00.479Z,64.60
2023-01-30T09:53:43.239Z,64.67
2023-01-30T09:56:12.180Z,64.16
2023-01-30T09:58:51.352Z,63.41
2023-01-30T10:01:24.055Z,64.01
2023-01-30T10:04:00.203Z,63.87
2023-01-30T10:06:28.012Z,63.87
2023-01-30T10:09:14.203Z,63.72
2023-01-30T10:11:56.573Z,63.47
2023-01-30T10:14:33.354Z,63.36
2023-01-30T10:17:01.557Z,63.22
2023-01-30T10:19:35.612Z,63.67
2023-01-30T10:22:21.814Z,63.83
2023-01-30T10:25:01.505Z,63.61
2023-01-30T10:27:35.540Z,63.66
2023-01-30T10:30:05.357Z,63.73
2023-01-30T10:32:39.610Z,63.84
2023-01-30T10:35:13.291Z,63.61
2023-01-30T10:37:50.575Z,63.59
2023-01-30T10:40:42.140Z,63.84
2023-01-30T10:43:16.966Z,63.70
2023-01-30T10:45:50.619Z,63.57
2023-01-30T10:48:42.575Z,63.55
2023-01-30T10:51:23.843Z,63.20
2023-01-30T10:53:58.407Z,63.63
2023-01-30T10:56:33.087Z,63.54
2023-01-30T10:59:06.367Z,63.36
2023-01-30T11:02:00.059Z,63.18
2023-01-30T11:04:41.023Z,63.21
2023-01-30T11:07:08.706Z,63.58
2023-01-30T11:09:40.249Z,64.08
2023-01-30T11:12:07.661Z,63.24
2023-01-30T11:14:52.361Z,63.68
2023-01-30T11:17:20.783Z,64.28
2023-01-30T11:19:55.172Z,63.57
2023-01-30T11:22:25.972Z,63.73
2023-01-30T11:25:00.738Z,63.97
2023-01-30T11:27:29.469Z,64.15
2023-01-30T11:30:07.374Z,64.26
2023-01-30T11:32:34.741Z,64.23
2023-01-30T11:35:08.995Z,64.15
2023-01-30T11:37:36.235Z,64.24
2023-01-30T11:40:19.353Z,64.02
2023-01-30T11:42:59.453Z,64.21
2023-01-30T11:45:30.393Z,64.00
2023-01-30T11:48:03.394Z,64.43
2023-01-30T11:50:36.436Z,64.24
2023-01-30T11:53:27.965Z,64.51
2023-01-30T11:56:05.224Z,64.92
2023-01-30T11:58:35.875Z,64.73
2023-01-30T12:01:03.663Z,64.62
2023-01-30T12:03:31.860Z,64.22
2023-01-30T12:05:59.413Z,64.95
2023-01-30T12:08:41.875Z,64.85
2023-01-30T12:11:24.560Z,64.75
2023-01-30T12:13:53.164Z,64.93
2023-01-30T12:16:39.123Z,64.72
2023-01-30T12:19:25.231Z,65.04
2023-01-30T12:21:59.178Z,64.80
2023-01-30T12:24:28.787Z,65.04
2023-01-30T12:27:02.107Z,65.00
2023-01-30T12:29:33.163Z,64.65
2023-01-30T12:32:09.995Z,65.00
2023-01-30T12:34:37.405Z,64.77
2023-01-30T12:37:04.636Z,64.90
2023-01-30T12:39:41.961Z,64.73
2023-01-30T12:42:23.837Z,64.13
2023-01-30T12:45:12.881Z,64.55
2023-01-30T12:47:49.459Z,65.03
2023-01-30T12:50:25.922Z,65.12
2023-01-30T12:52:53.120Z,65.17
2023-01-30T12:55:33.958Z,64.81
2023-01-30T12:58:06.589Z,65.10
2023-01-30T13:00:33.823Z,65.52
2023-01-30T13:03:19.931Z,65.18
2023-01-30T13:06:13.820Z,65.09
2023-01-30T13:08:44.334Z,65.25
2023-01-30T13:11:14.711Z,65.11
2023-01-30T13:13:46.849Z,65.40
2023-01-30T13:16:53.858Z,65.97
2023-01-30T13:19:39.440Z,66.24
2023-01-30T13:22:36.654Z,66.17
2023-01-30T13:25:40.632Z,65.97
2023-01-30T13:28:13.627Z,65.73
2023-01-30T13:30:41.422Z,65.45
2023-01-30T13:33:24.466Z,65.11
2023-01-30T13:35:58.651Z,65.08
2023-01-30T13:38:31.434Z,65.34
2023-01-30T13:41:00.792Z,65.55
2023-01-30T13:43:39.606Z,65.86
2023-01-30T13:46:11.622Z,66.41
2023-01-30T13:48:57.693Z,66.23
2023-01-30T13:51:30.972Z,66.79
2023-01-30T13:53:58.140Z,66.84
2023-01-30T13:56:43.132Z,66.85
2023-01-30T13:59:21.771Z,67.35
2023-01-30T14:02:04.416Z,67.38
2023-01-30T14:04:41.176Z,66.75
2023-01-30T14:07:14.640Z,66.46
2023-01-30T14:10:08.335Z,66.05
2023-01-30T14:12:35.554Z,66.42
2023-01-30T14:15:24.332Z,66.49
2023-01-30T14:17:57.871Z,66.48
2023-01-30T14:20:28.549Z,66.40
2023-01-30T14:22:57.467Z,66.52
2023-01-30T14:25:27.954Z,66.33
2023-01-30T14:28:15.129Z,65.84
2023-01-30T14:30:45.413Z,65.25
2023-01-30T14:33:21.914Z,65.48
2023-01-30T14:35:58.571Z,65.11
2023-01-30T14:38:27.077Z,64.85
2023-01-30T14:41:00.325Z,65.57
2023-01-30T14:43:49.650Z,64.88
2023-01-30T14:46:18.217Z,65.45
2023-01-30T14:48:57.489Z,65.58
2023-01-30T14:51:28.129Z,64.98
2023-01-30T14:54:01.474Z,65.38
2023-01-30T14:56:34.877Z,65.05
2023-01-30T14:59:04.111Z,64.27
2023-01-30T15:01:52.537Z,64.49
2023-01-30T15:04:19.989Z,64.01
2023-01-30T15:06:47.534Z,64.27
2023-01-30T15:09:18.943Z,64.50
2023-01-30T15:11:49.041Z,64.35
2023-01-30T15:14:29.967Z,64.62
2023-01-30T15:17:05.732Z,64.48
2023-01-30T15:19:42.282Z,64.87
2023-01-30T15:22:16.858Z,64.46
2023-01-30T15:25:02.542Z,63.56
2023-01-30T15:27:36.997Z,63.51
2023-01-30T15:30:04.367Z,63.60
2023-01-30T15:32:32.910Z,63.88
2023-01-30T15:35:01.541Z,63.79
2023-01-30T15:37:30.244Z,63.41
2023-01-30T15:40:21.020Z,63.76
2023-01-30T15:42:48.488Z,63.56
2023-01-30T15:45:15.829Z,63.23
2023-01-30T15:47:52.423Z,62.76
2023-01-30T15:50:19.891Z,62.77
2023-01-30T15:52:49.544Z,62.98
2023-01-30T15:55:16.919Z,62.93
2023-01-30T15:57:47.943Z,63.04
2023-01-30T16:00:22.486Z,63.15
2023-01-30T16:02:49.783Z,63.15
2023-01-30T16:05:23.225Z,63.17
2023-01-30T16:07:53.078Z,63.37
2023-01-30T16:10:22.464Z,63.17
2023-01-30T16:12:56.306Z,63.63
2023-01-30T16:15:38.631Z,62.84
2023-01-30T16:18:20.934Z,62.70
2023-01-30T16:21:00.440Z,63.03
2023-01-30T16:23:29.125Z,62.68
2023-01-30T16:25:56.940Z,62.27
2023-01-30T16:28:25.221Z,62.30
2023-01-30T16:30:58.921Z,62.63
2023-01-30T16:33:26.693Z,62.39
2023-01-30T16:35:53.951Z,62.05
2023-01-30T16:38:36.581Z,62.48
2023-01-30T16:41:04.841Z,61.56
2023-01-30T16:43:33.710Z,61.88
2023-01-30T16:46:30.383Z,61.98
2023-01-30T16:49:02.974Z,61.58
2023-01-30T16:51:30.309Z,62.08
2023-01-30T16:53:59.666Z,62.19
2023-01-30T16:56:27.665Z,61.77
2023-01-30T16:58:57.137Z,61.92
2023-01-30T17:01:34.903Z,61.36
2023-01-30T17:04:03.802Z,61.35
2023-01-30T17:06:31.025Z,61.22
2023-01-30T17:08:59.010Z,61.55
2023-01-30T17:11:30.927Z,61.97
2023-01-30T17:14:10.247Z,61.80
2023-01-30T17:16:39.319Z,61.87
2023-01-30T17:19:06.786Z,61.96
2023-01-30T17:21:54.795Z,61.80
2023-01-30T17:24:22.389Z,61.68
2023-01-30T17:26:51.459Z,61.63
2023-01-30T17:29:41.061Z,61.79
2023-01-30T17:32:10.593Z,61.38
2023-01-30T17:34:41.118Z,61.48
2023-01-30T17:37:14.194Z,61.24
2023-01-30T17:39:41.418Z,60.86
2023-01-30T17:42:12.459Z,61.30
2023-01-30T17:44:40.192Z,61.71
2023-01-30T17:47:09.416Z,61.53
2023-01-30T17:49:36.820Z,61.31
2023-01-30T17:52:04.204Z,61.74
2023-01-30T17:54:31.465Z,61.73
2023-01-30T17:57:03.241Z,60.72
2023-01-30T17:59:31.454Z,61.10
2023-01-30T18:01:59.104Z,61.10
2023-01-30T18:04:26.471Z,61.65
2023-01-30T18:06:56.055Z,61.48
2023-01-30T18:09:23.990Z,62.20
2023-01-30T18:11:51.388Z,62.25
2023-01-30T18:14:18.956Z,61.76
2023-01-30T18:16:46.516Z,61.61
2023-01-30T18:19:14.932Z,61.73
2023-01-30T18:21:45.698Z,62.38
2023-01-30T18:24:13.596Z,61.81
2023-01-30T18:26:41.103Z,62.12
2023-01-30T18:29:09.866Z,61.61
2023-01-30T18:31:40.705Z,61.61
2023-01-30T18:34:10.022Z,61.80
2023-01-30T18:36:37.613Z,61.25
2023-01-30T18:39:05.392Z,60.93
2023-01-30T18:41:32.692Z,60.75
2023-01-30T18:44:01.444Z,60.62
2023-01-30T18:46:29.445Z,61.48
2023-01-30T18:48:57.215Z,61.54
2023-01-30T18:51:25.617Z,61.80
2023-01-30T18:53:53.536Z,61.75
2023-01-30T18:56:22.131Z,61.99
2023-01-30T18:58:56.517Z,61.72
2023-01-30T19:01:28.310Z,61.90
2023-01-30T19:03:59.747Z,61.84
2023-01-30T19:06:27.984Z,62.15
2023-01-30T19:08:57.004Z,61.89
2023-01-30T19:11:43.043Z,62.12
2023-01-30T19:14:10.925Z,61.99
2023-01-30T19:16:39.010Z,61.86
2023-01-30T19:19:06.896Z,62.13
2023-01-30T19:21:34.855Z,61.28
2023-01-30T19:24:09.633Z,61.30
2023-01-30T19:26:36.933Z,61.98
2023-01-30T19:29:04.218Z,62.32
2023-01-30T19:31:31.582Z,62.00
2023-01-30T19:34:01.081Z,62.17
2023-01-30T19:36:30.146Z,62.29
2023-01-30T19:38:59.609Z,62.26
2023-01-30T19:41:28.520Z,62.78
2023-01-30T19:43:56.554Z,62.87
2023-01-30T19:46:23.971Z,63.22
2023-01-30T19:48:51.628Z,63.26
2023-01-30T19:51:29.424Z,64.18
2023-01-30T19:54:00.992Z,64.13
2023-01-30T19:56:28.972Z,63.88
2023-01-30T19:58:59.739Z,64.08
2023-01-30T20:01:29.887Z,64.39
2023-01-30T20:03:57.333Z,64.03
2023-01-30T20:06:26.428Z,64.73
2023-01-30T20:08:55.044Z,65.23
2023-01-30T20:11:24.660Z,65.17
2023-01-30T20:13:52.309Z,65.25
2023-01-30T20:16:20.889Z,66.02
2023-01-30T20:18:49.649Z,65.55
2023-01-30T20:21:18.668Z,66.18
2023-01-30T20:23:46.791Z,66.39
2023-01-30T20:26:15.883Z,66.03
2023-01-30T20:28:43.643Z,65.86
2023-01-30T20:31:18.646Z,66.14
2023-01-30T20:33:46.412Z,65.70
2023-01-30T20:36:14.901Z,65.71
2023-01-30T20:38:43.997Z,65.67
2023-01-30T20:41:12.589Z,65.83
2023-01-30T20:43:40.602Z,65.66
2023-01-30T20:46:10.045Z,65.86
2023-01-30T20:48:38.596Z,65.35
2023-01-30T20:51:07.043Z,66.08
2023-01-30T20:53:37.369Z,66.05
2023-01-30T20:56:04.942Z,65.84
2023-01-30T20:58:32.661Z,66.39
2023-01-30T21:01:17.835Z,66.50
2023-01-30T21:03:46.068Z,66.62
2023-01-30T21:06:13.465Z,66.46
2023-01-30T21:09:01.130Z,66.20
2023-01-30T21:11:28.530Z,66.38
2023-01-30T21:13:55.750Z,66.28
2023-01-30T21:16:24.806Z,66.16
2023-01-30T21:18:53.596Z,65.99
2023-01-30T21:21:39.047Z,65.79
2023-01-30T21:24:07.627Z,65.73
2023-01-30T21:26:36.058Z,65.78
2023-01-30T21:29:04.225Z,65.84
2023-01-30T21:31:34.174Z,66.19
2023-01-30T21:34:01.981Z,66.84
2023-01-30T21:36:29.284Z,66.84
2023-01-30T21:39:15.897Z,66.76
2023-01-30T21:42:02.333Z,66.21
2023-01-30T21:44:31.103Z,66.20
2023-01-30T21:46:58.353Z,66.54
2023-01-30T21:49:26.019Z,66.49
2023-01-30T21:51:53.782Z,66.49
2023-01-30T21:54:21.642Z,66.32
2023-01-30T21:56:50.653Z,66.26
2023-01-30T21:59:17.991Z,66.13
2023-01-30T22:01:45.261Z,65.88
2023-01-30T22:04:14.540Z,66.12
2023-01-30T22:06:42.093Z,65.71
2023-01-30T22:09:11.866Z,65.78
2023-01-30T22:11:39.091Z,66.20
2023-01-30T22:14:06.525Z,66.06
2023-01-30T22:16:34.004Z,65.68
2023-01-30T22:19:02.235Z,65.99
2023-01-30T22:21:32.386Z,66.02
2023-01-30T22:23:59.626Z,66.46
2023-01-30T22:26:26.952Z,66.58
2023-01-30T22:28:58.308Z,66.79
2023-01-30T22:31:26.697Z,66.41
2023-01-30T22:33:55.196Z,66.67
2023-01-30T22:36:30.770Z,66.87
2023-01-30T22:38:58.120Z,66.74
2023-01-30T22:41:26.458Z,66.00
2023-01-30T22:43:57.799Z,66.00
2023-01-30T22:46:32.371Z,66.00
2023-01-30T22:49:00.480Z,66.34
2023-01-30T22:51:29.791Z,65.91
2023-01-30T22:54:04.938Z,66.00
2023-01-30T22:56:37.190Z,66.25
2023-01-30T22:59:04.830Z,66.77
2023-01-30T23:01:33.278Z,66.34
2023-01-30T23:04:01.573Z,66.44
2023-01-30T23:06:31.475Z,66.54
2023-01-30T23:09:01.350Z,67.13
2023-01-30T23:11:36.849Z,67.09
2023-01-30T23:14:08.830Z,67.09
2023-01-30T23:16:37.493Z,66.95
2023-01-30T23:19:05.864Z,67.17
2023-01-30T23:21:36.162Z,66.88
2023-01-30T23:24:09.987Z,67.22
2023-01-30T23:26:38.228Z,66.82
2023-01-30T23:29:09.672Z,66.20
2023-01-30T23:31:36.965Z,66.58
2023-01-30T23:34:05.088Z,66.78
2023-01-30T23:36:32.586Z,66.84
2023-01-30T23:39:00.327Z,66.49
2023-01-30T23:41:29.118Z,66.56
2023-01-30T23:43:57.252Z,66.39
2023-01-30T23:46:29.379Z,66.76
2023-01-30T23:48:58.081Z,66.91
2023-01-30T23:51:26.881Z,66.51
2023-01-30T23:53:54.629Z,66.78
2023-01-30T23:56:23.028Z,66.30
2023-01-30T23:58:50.515Z,67.11
